sensor_id;sensor_type;location;lat;lon;timestamp;temperature;humidity
74155;DHT22;62509;46.248;6.018;2024-03-29T00:02:43;13.20;58.80
74155;DHT22;62509;46.248;6.018;2024-03-29T00:07:44;13.10;58.70
74155;DHT22;62509;46.248;6.018;2024-03-29T00:12:45;13.10;58.70
74155;DHT22;62509;46.248;6.018;2024-03-29T00:17:48;12.90;58.70
74155;DHT22;62509;46.248;6.018;2024-03-29T00:22:49;13.00;58.80
74155;DHT22;62509;46.248;6.018;2024-03-29T00:27:51;13.00;58.80
74155;DHT22;62509;46.248;6.018;2024-03-29T00:32:53;13.00;58.80
74155;DHT22;62509;46.248;6.018;2024-03-29T00:37:55;13.00;58.80
74155;DHT22;62509;46.248;6.018;2024-03-29T00:42:56;13.00;58.70
74155;DHT22;62509;46.248;6.018;2024-03-29T00:47:58;13.00;58.60
74155;DHT22;62509;46.248;6.018;2024-03-29T00:53:00;13.00;58.50
74155;DHT22;62509;46.248;6.018;2024-03-29T00:58:01;13.10;58.50
74155;DHT22;62509;46.248;6.018;2024-03-29T01:03:04;13.10;58.50
74155;DHT22;62509;46.248;6.018;2024-03-29T01:08:05;13.10;58.40
74155;DHT22;62509;46.248;6.018;2024-03-29T01:13:07;13.10;58.40
74155;DHT22;62509;46.248;6.018;2024-03-29T01:18:10;13.20;58.40
74155;DHT22;62509;46.248;6.018;2024-03-29T01:23:11;13.20;58.30
74155;DHT22;62509;46.248;6.018;2024-03-29T01:28:12;13.30;58.30
74155;DHT22;62509;46.248;6.018;2024-03-29T01:33:15;13.20;58.30
74155;DHT22;62509;46.248;6.018;2024-03-29T01:38:16;13.30;58.30
74155;DHT22;62509;46.248;6.018;2024-03-29T01:43:17;13.20;58.20
74155;DHT22;62509;46.248;6.018;2024-03-29T01:48:21;13.30;58.30
74155;DHT22;62509;46.248;6.018;2024-03-29T01:53:24;13.30;58.30
74155;DHT22;62509;46.248;6.018;2024-03-29T01:58:27;13.30;58.20
74155;DHT22;62509;46.248;6.018;2024-03-29T02:03:31;13.40;58.20
74155;DHT22;62509;46.248;6.018;2024-03-29T02:08:34;13.50;58.10
74155;DHT22;62509;46.248;6.018;2024-03-29T02:13:36;13.50;58.10
74155;DHT22;62509;46.248;6.018;2024-03-29T02:18:40;13.60;58.00
74155;DHT22;62509;46.248;6.018;2024-03-29T02:23:43;13.60;58.00
74155;DHT22;62509;46.248;6.018;2024-03-29T02:28:48;13.70;58.00
74155;DHT22;62509;46.248;6.018;2024-03-29T02:33:50;13.70;58.00
74155;DHT22;62509;46.248;6.018;2024-03-29T02:38:52;13.70;57.80
74155;DHT22;62509;46.248;6.018;2024-03-29T02:43:56;13.80;57.80
74155;DHT22;62509;46.248;6.018;2024-03-29T02:48:58;13.90;57.80
74155;DHT22;62509;46.248;6.018;2024-03-29T02:54:01;14.00;57.70
74155;DHT22;62509;46.248;6.018;2024-03-29T02:59:04;14.10;57.70
74155;DHT22;62509;46.248;6.018;2024-03-29T03:04:06;14.10;57.60
74155;DHT22;62509;46.248;6.018;2024-03-29T03:09:09;14.20;57.50
74155;DHT22;62509;46.248;6.018;2024-03-29T03:14:29;14.40;57.50
74155;DHT22;62509;46.248;6.018;2024-03-29T03:19:32;14.50;57.30
74155;DHT22;62509;46.248;6.018;2024-03-29T03:24:34;14.70;57.20
74155;DHT22;62509;46.248;6.018;2024-03-29T03:29:38;15.00;57.00
74155;DHT22;62509;46.248;6.018;2024-03-29T03:34:41;15.20;56.80
74155;DHT22;62509;46.248;6.018;2024-03-29T03:39:43;15.30;56.80
74155;DHT22;62509;46.248;6.018;2024-03-29T03:44:46;15.40;56.70
74155;DHT22;62509;46.248;6.018;2024-03-29T03:49:49;15.50;56.70
74155;DHT22;62509;46.248;6.018;2024-03-29T03:54:51;15.60;56.70
74155;DHT22;62509;46.248;6.018;2024-03-29T03:59:55;15.70;56.70
74155;DHT22;62509;46.248;6.018;2024-03-29T04:04:57;15.70;56.60
74155;DHT22;62509;46.248;6.018;2024-03-29T04:09:59;15.80;56.70
74155;DHT22;62509;46.248;6.018;2024-03-29T04:15:03;15.80;56.70
74155;DHT22;62509;46.248;6.018;2024-03-29T04:20:06;15.80;56.70
74155;DHT22;62509;46.248;6.018;2024-03-29T04:25:09;15.90;56.70
74155;DHT22;62509;46.248;6.018;2024-03-29T04:30:13;15.90;56.70
74155;DHT22;62509;46.248;6.018;2024-03-29T04:35:15;15.90;56.80
74155;DHT22;62509;46.248;6.018;2024-03-29T04:40:17;15.90;56.90
74155;DHT22;62509;46.248;6.018;2024-03-29T04:45:21;15.80;56.90
74155;DHT22;62509;46.248;6.018;2024-03-29T04:50:23;15.80;57.00
74155;DHT22;62509;46.248;6.018;2024-03-29T04:55:25;15.70;57.00
74155;DHT22;62509;46.248;6.018;2024-03-29T05:00:29;15.60;57.00
74155;DHT22;62509;46.248;6.018;2024-03-29T05:05:31;15.50;57.10
74155;DHT22;62509;46.248;6.018;2024-03-29T05:10:33;15.50;57.20
74155;DHT22;62509;46.248;6.018;2024-03-29T05:15:37;15.50;57.70
74155;DHT22;62509;46.248;6.018;2024-03-29T05:20:40;15.50;57.20
74155;DHT22;62509;46.248;6.018;2024-03-29T05:25:47;15.40;57.20
74155;DHT22;62509;46.248;6.018;2024-03-29T05:30:51;15.50;57.20
74155;DHT22;62509;46.248;6.018;2024-03-29T05:35:53;15.50;57.20
74155;DHT22;62509;46.248;6.018;2024-03-29T05:40:56;15.50;57.10
74155;DHT22;62509;46.248;6.018;2024-03-29T05:46:00;15.50;57.10
74155;DHT22;62509;46.248;6.018;2024-03-29T05:51:02;15.60;57.10
74155;DHT22;62509;46.248;6.018;2024-03-29T05:56:05;15.60;57.10
74155;DHT22;62509;46.248;6.018;2024-03-29T06:01:09;15.60;57.10
74155;DHT22;62509;46.248;6.018;2024-03-29T06:06:11;15.60;57.10
74155;DHT22;62509;46.248;6.018;2024-03-29T06:11:18;15.60;57.10
74155;DHT22;62509;46.248;6.018;2024-03-29T06:16:22;15.60;57.10
74155;DHT22;62509;46.248;6.018;2024-03-29T06:21:43;15.60;57.10
74155;DHT22;62509;46.248;6.018;2024-03-29T06:26:45;15.60;57.10
74155;DHT22;62509;46.248;6.018;2024-03-29T06:31:48;15.60;57.00
74155;DHT22;62509;46.248;6.018;2024-03-29T06:36:51;15.60;57.20
74155;DHT22;62509;46.248;6.018;2024-03-29T06:41:53;15.70;57.00
74155;DHT22;62509;46.248;6.018;2024-03-29T06:46:57;15.70;57.00
74155;DHT22;62509;46.248;6.018;2024-03-29T06:51:59;15.70;57.00
74155;DHT22;62509;46.248;6.018;2024-03-29T06:57:02;15.70;57.00
74155;DHT22;62509;46.248;6.018;2024-03-29T07:02:06;15.70;56.90
74155;DHT22;62509;46.248;6.018;2024-03-29T07:07:08;15.80;57.00
74155;DHT22;62509;46.248;6.018;2024-03-29T07:12:10;15.80;56.90
74155;DHT22;62509;46.248;6.018;2024-03-29T07:17:14;15.90;56.90
74155;DHT22;62509;46.248;6.018;2024-03-29T07:22:16;15.90;56.80
74155;DHT22;62509;46.248;6.018;2024-03-29T07:27:18;16.00;56.80
74155;DHT22;62509;46.248;6.018;2024-03-29T07:32:22;16.20;56.70
74155;DHT22;62509;46.248;6.018;2024-03-29T07:37:24;16.40;56.50
74155;DHT22;62509;46.248;6.018;2024-03-29T07:42:26;16.60;56.30
74155;DHT22;62509;46.248;6.018;2024-03-29T07:47:30;16.70;56.20
74155;DHT22;62509;46.248;6.018;2024-03-29T07:52:33;16.80;56.10
74155;DHT22;62509;46.248;6.018;2024-03-29T07:57:35;17.00;56.10
74155;DHT22;62509;46.248;6.018;2024-03-29T08:02:38;17.10;55.90
74155;DHT22;62509;46.248;6.018;2024-03-29T08:07:41;17.20;55.90
74155;DHT22;62509;46.248;6.018;2024-03-29T08:12:43;17.30;55.90
74155;DHT22;62509;46.248;6.018;2024-03-29T08:17:47;17.40;55.80
74155;DHT22;62509;46.248;6.018;2024-03-29T08:22:50;17.50;55.80
74155;DHT22;62509;46.248;6.018;2024-03-29T08:27:54;17.50;55.80
74155;DHT22;62509;46.248;6.018;2024-03-29T08:33:00;17.60;55.70
74155;DHT22;62509;46.248;6.018;2024-03-29T08:38:04;17.60;55.70
74155;DHT22;62509;46.248;6.018;2024-03-29T08:43:06;17.70;55.70
74155;DHT22;62509;46.248;6.018;2024-03-29T08:48:10;17.70;55.70
74155;DHT22;62509;46.248;6.018;2024-03-29T08:53:12;17.80;55.80
74155;DHT22;62509;46.248;6.018;2024-03-29T08:58:14;17.80;55.70
74155;DHT22;62509;46.248;6.018;2024-03-29T09:03:19;17.80;55.70
74155;DHT22;62509;46.248;6.018;2024-03-29T09:08:22;17.90;55.70
74155;DHT22;62509;46.248;6.018;2024-03-29T09:13:24;17.90;55.60
74155;DHT22;62509;46.248;6.018;2024-03-29T09:18:28;18.00;55.60
74155;DHT22;62509;46.248;6.018;2024-03-29T09:23:31;18.10;55.60
74155;DHT22;62509;46.248;6.018;2024-03-29T09:28:33;18.10;55.50
74155;DHT22;62509;46.248;6.018;2024-03-29T09:33:38;18.20;55.50
74155;DHT22;62509;46.248;6.018;2024-03-29T09:38:40;18.20;55.50
74155;DHT22;62509;46.248;6.018;2024-03-29T09:43:43;18.30;55.50
74155;DHT22;62509;46.248;6.018;2024-03-29T09:48:47;18.40;55.50
74155;DHT22;62509;46.248;6.018;2024-03-29T09:53:50;18.40;55.40
74155;DHT22;62509;46.248;6.018;2024-03-29T09:58:53;18.50;55.40
74155;DHT22;62509;46.248;6.018;2024-03-29T10:03:56;18.60;55.20
74155;DHT22;62509;46.248;6.018;2024-03-29T10:09:00;18.60;55.20
74155;DHT22;62509;46.248;6.018;2024-03-29T10:14:02;18.70;55.20
74155;DHT22;62509;46.248;6.018;2024-03-29T10:19:06;18.70;55.20
74155;DHT22;62509;46.248;6.018;2024-03-29T10:24:12;18.70;55.20
74155;DHT22;62509;46.248;6.018;2024-03-29T10:29:15;18.70;55.20
74155;DHT22;62509;46.248;6.018;2024-03-29T10:34:19;18.70;55.20
74155;DHT22;62509;46.248;6.018;2024-03-29T10:39:21;18.70;55.10
74155;DHT22;62509;46.248;6.018;2024-03-29T10:44:24;18.80;55.10
74155;DHT22;62509;46.248;6.018;2024-03-29T10:49:29;18.70;55.10
74155;DHT22;62509;46.248;6.018;2024-03-29T10:54:31;18.80;55.10
74155;DHT22;62509;46.248;6.018;2024-03-29T10:59:38;18.80;55.00
74155;DHT22;62509;46.248;6.018;2024-03-29T11:04:44;18.90;55.10
74155;DHT22;62509;46.248;6.018;2024-03-29T11:09:47;18.90;55.00
74155;DHT22;62509;46.248;6.018;2024-03-29T11:14:54;18.90;55.00
74155;DHT22;62509;46.248;6.018;2024-03-29T11:20:02;18.90;55.00
74155;DHT22;62509;46.248;6.018;2024-03-29T11:25:06;18.90;54.90
74155;DHT22;62509;46.248;6.018;2024-03-29T11:30:09;19.00;54.90
74155;DHT22;62509;46.248;6.018;2024-03-29T11:35:16;19.00;54.80
74155;DHT22;62509;46.248;6.018;2024-03-29T11:40:20;19.10;54.80
74155;DHT22;62509;46.248;6.018;2024-03-29T11:45:23;19.10;54.70
74155;DHT22;62509;46.248;6.018;2024-03-29T11:50:30;19.20;54.70
74155;DHT22;62509;46.248;6.018;2024-03-29T11:55:32;19.30;54.60
74155;DHT22;62509;46.248;6.018;2024-03-29T12:00:35;19.40;54.50
74155;DHT22;62509;46.248;6.018;2024-03-29T12:05:38;19.50;54.40
74155;DHT22;62509;46.248;6.018;2024-03-29T12:10:41;19.60;54.30
74155;DHT22;62509;46.248;6.018;2024-03-29T12:15:43;19.70;54.20
74155;DHT22;62509;46.248;6.018;2024-03-29T12:20:47;19.90;54.10
74155;DHT22;62509;46.248;6.018;2024-03-29T12:25:50;20.10;53.90
74155;DHT22;62509;46.248;6.018;2024-03-29T12:30:53;20.10;53.80
74155;DHT22;62509;46.248;6.018;2024-03-29T12:35:58;20.20;53.80
74155;DHT22;62509;46.248;6.018;2024-03-29T12:41:00;20.30;53.70
74155;DHT22;62509;46.248;6.018;2024-03-29T12:46:03;20.40;53.70
74155;DHT22;62509;46.248;6.018;2024-03-29T12:51:07;20.40;53.60
74155;DHT22;62509;46.248;6.018;2024-03-29T12:56:11;20.50;53.50
74155;DHT22;62509;46.248;6.018;2024-03-29T13:01:13;20.70;53.50
74155;DHT22;62509;46.248;6.018;2024-03-29T13:06:18;20.70;53.40
74155;DHT22;62509;46.248;6.018;2024-03-29T13:11:20;20.80;53.30
74155;DHT22;62509;46.248;6.018;2024-03-29T13:16:22;20.80;53.30
74155;DHT22;62509;46.248;6.018;2024-03-29T13:21:26;20.80;53.30
74155;DHT22;62509;46.248;6.018;2024-03-29T13:26:28;20.80;53.20
74155;DHT22;62509;46.248;6.018;2024-03-29T13:31:31;20.80;53.20
74155;DHT22;62509;46.248;6.018;2024-03-29T13:36:35;20.80;53.20
74155;DHT22;62509;46.248;6.018;2024-03-29T13:41:38;20.80;53.20
74155;DHT22;62509;46.248;6.018;2024-03-29T13:46:41;20.90;53.20
74155;DHT22;62509;46.248;6.018;2024-03-29T13:51:44;20.90;53.20
74155;DHT22;62509;46.248;6.018;2024-03-29T13:56:47;20.90;53.10
74155;DHT22;62509;46.248;6.018;2024-03-29T14:01:49;20.90;53.10
74155;DHT22;62509;46.248;6.018;2024-03-29T14:06:53;20.90;53.10
74155;DHT22;62509;46.248;6.018;2024-03-29T14:11:56;20.90;53.00
74155;DHT22;62509;46.248;6.018;2024-03-29T14:16:59;20.90;53.00
74155;DHT22;62509;46.248;6.018;2024-03-29T14:22:06;20.90;53.00
74155;DHT22;62509;46.248;6.018;2024-03-29T14:27:09;20.90;52.90
74155;DHT22;62509;46.248;6.018;2024-03-29T14:32:13;20.90;52.80
74155;DHT22;62509;46.248;6.018;2024-03-29T14:37:17;21.00;52.80
74155;DHT22;62509;46.248;6.018;2024-03-29T14:42:20;20.90;52.70
74155;DHT22;62509;46.248;6.018;2024-03-29T14:47:23;20.90;52.70
74155;DHT22;62509;46.248;6.018;2024-03-29T14:52:27;21.00;52.70
74155;DHT22;62509;46.248;6.018;2024-03-29T14:57:29;21.00;52.60
74155;DHT22;62509;46.248;6.018;2024-03-29T15:02:32;21.00;52.60
74155;DHT22;62509;46.248;6.018;2024-03-29T15:07:36;21.00;52.50
74155;DHT22;62509;46.248;6.018;2024-03-29T15:12:38;21.00;52.50
74155;DHT22;62509;46.248;6.018;2024-03-29T15:17:40;21.00;52.40
74155;DHT22;62509;46.248;6.018;2024-03-29T15:22:46;21.00;52.40
74155;DHT22;62509;46.248;6.018;2024-03-29T15:27:51;21.00;52.40
74155;DHT22;62509;46.248;6.018;2024-03-29T15:33:22;21.00;52.30
74155;DHT22;62509;46.248;6.018;2024-03-29T15:38:25;21.00;52.30
74155;DHT22;62509;46.248;6.018;2024-03-29T15:43:30;21.00;52.40
74155;DHT22;62509;46.248;6.018;2024-03-29T15:48:33;20.90;52.30
74155;DHT22;62509;46.248;6.018;2024-03-29T15:53:37;20.90;52.40
74155;DHT22;62509;46.248;6.018;2024-03-29T15:58:39;20.80;52.30
74155;DHT22;62509;46.248;6.018;2024-03-29T16:03:41;20.80;52.20
74155;DHT22;62509;46.248;6.018;2024-03-29T16:08:45;20.80;52.20
74155;DHT22;62509;46.248;6.018;2024-03-29T16:13:47;20.80;52.20
74155;DHT22;62509;46.248;6.018;2024-03-29T16:18:50;20.70;52.10
74155;DHT22;62509;46.248;6.018;2024-03-29T16:23:53;20.70;52.10
74155;DHT22;62509;46.248;6.018;2024-03-29T16:28:56;20.80;52.00
74155;DHT22;62509;46.248;6.018;2024-03-29T16:34:04;20.80;51.90
74155;DHT22;62509;46.248;6.018;2024-03-29T16:39:08;20.80;51.80
74155;DHT22;62509;46.248;6.018;2024-03-29T16:44:10;20.80;51.70
74155;DHT22;62509;46.248;6.018;2024-03-29T16:49:13;20.80;51.70
74155;DHT22;62509;46.248;6.018;2024-03-29T16:54:16;20.80;51.60
74155;DHT22;62509;46.248;6.018;2024-03-29T16:59:19;20.80;51.60
74155;DHT22;62509;46.248;6.018;2024-03-29T17:04:21;20.80;51.60
74155;DHT22;62509;46.248;6.018;2024-03-29T17:09:34;20.80;51.60
74155;DHT22;62509;46.248;6.018;2024-03-29T17:14:38;20.70;51.50
74155;DHT22;62509;46.248;6.018;2024-03-29T17:19:40;20.70;51.50
74155;DHT22;62509;46.248;6.018;2024-03-29T17:24:44;20.70;51.40
74155;DHT22;62509;46.248;6.018;2024-03-29T17:29:47;20.70;51.40
74155;DHT22;62509;46.248;6.018;2024-03-29T17:34:50;20.60;51.30
74155;DHT22;62509;46.248;6.018;2024-03-29T17:39:54;20.60;51.30
74155;DHT22;62509;46.248;6.018;2024-03-29T17:44:56;20.60;51.30
74155;DHT22;62509;46.248;6.018;2024-03-29T17:49:59;20.60;51.20
74155;DHT22;62509;46.248;6.018;2024-03-29T17:55:03;20.50;51.10
74155;DHT22;62509;46.248;6.018;2024-03-29T18:00:06;20.50;51.10
74155;DHT22;62509;46.248;6.018;2024-03-29T18:05:12;20.40;51.20
74155;DHT22;62509;46.248;6.018;2024-03-29T18:10:16;20.00;51.70
74155;DHT22;62509;46.248;6.018;2024-03-29T18:15:19;19.70;51.90
74155;DHT22;62509;46.248;6.018;2024-03-29T18:20:21;19.60;52.00
74155;DHT22;62509;46.248;6.018;2024-03-29T18:25:25;19.50;51.90
74155;DHT22;62509;46.248;6.018;2024-03-29T18:30:28;19.40;51.80
74155;DHT22;62509;46.248;6.018;2024-03-29T18:35:31;19.40;51.80
74155;DHT22;62509;46.248;6.018;2024-03-29T18:40:35;19.40;51.70
74155;DHT22;62509;46.248;6.018;2024-03-29T18:45:38;19.30;51.80
74155;DHT22;62509;46.248;6.018;2024-03-29T18:50:41;19.30;51.80
74155;DHT22;62509;46.248;6.018;2024-03-29T18:55:54;19.20;51.70
74155;DHT22;62509;46.248;6.018;2024-03-29T19:00:57;19.10;51.70
74155;DHT22;62509;46.248;6.018;2024-03-29T19:06:00;19.10;51.80
74155;DHT22;62509;46.248;6.018;2024-03-29T19:11:03;19.00;51.70
74155;DHT22;62509;46.248;6.018;2024-03-29T19:16:06;19.00;51.70
74155;DHT22;62509;46.248;6.018;2024-03-29T19:21:08;18.90;51.70
74155;DHT22;62509;46.248;6.018;2024-03-29T19:26:12;18.90;51.60
74155;DHT22;62509;46.248;6.018;2024-03-29T19:31:15;18.80;51.60
74155;DHT22;62509;46.248;6.018;2024-03-29T19:36:17;18.70;51.50
74155;DHT22;62509;46.248;6.018;2024-03-29T19:45:17;18.70;51.10
74155;DHT22;62509;46.248;6.018;2024-03-29T19:50:19;19.60;50.60
74155;DHT22;62509;46.248;6.018;2024-03-29T19:55:21;20.30;50.10
74155;DHT22;62509;46.248;6.018;2024-03-29T20:00:25;20.90;49.90
74155;DHT22;62509;46.248;6.018;2024-03-29T20:05:27;21.20;49.70
74155;DHT22;62509;46.248;6.018;2024-03-29T20:10:34;21.40;49.60
74155;DHT22;62509;46.248;6.018;2024-03-29T20:15:39;21.60;49.60
74155;DHT22;62509;46.248;6.018;2024-03-29T20:20:45;21.70;49.70
74155;DHT22;62509;46.248;6.018;2024-03-29T20:25:48;21.80;49.70
74155;DHT22;62509;46.248;6.018;2024-03-29T20:30:52;21.80;49.70
74155;DHT22;62509;46.248;6.018;2024-03-29T20:35:54;21.90;49.70
74155;DHT22;62509;46.248;6.018;2024-03-29T20:40:56;21.90;49.70
74155;DHT22;62509;46.248;6.018;2024-03-29T20:45:59;21.90;49.80
74155;DHT22;62509;46.248;6.018;2024-03-29T20:51:02;21.90;49.80
74155;DHT22;62509;46.248;6.018;2024-03-29T20:56:04;21.90;49.80
74155;DHT22;62509;46.248;6.018;2024-03-29T21:01:09;21.90;49.80
74155;DHT22;62509;46.248;6.018;2024-03-29T21:06:11;21.90;49.80
74155;DHT22;62509;46.248;6.018;2024-03-29T21:11:13;21.90;49.80
74155;DHT22;62509;46.248;6.018;2024-03-29T21:16:17;21.90;49.90
74155;DHT22;62509;46.248;6.018;2024-03-29T21:21:19;21.90;49.90
74155;DHT22;62509;46.248;6.018;2024-03-29T21:26:22;21.80;49.90
74155;DHT22;62509;46.248;6.018;2024-03-29T21:31:26;21.80;49.90
74155;DHT22;62509;46.248;6.018;2024-03-29T21:36:28;21.80;49.90
74155;DHT22;62509;46.248;6.018;2024-03-29T21:41:30;21.80;49.90
74155;DHT22;62509;46.248;6.018;2024-03-29T21:46:34;21.80;49.90
74155;DHT22;62509;46.248;6.018;2024-03-29T21:51:36;21.80;49.80
74155;DHT22;62509;46.248;6.018;2024-03-29T21:56:38;21.70;49.80
74155;DHT22;62509;46.248;6.018;2024-03-29T22:01:43;21.80;49.80
74155;DHT22;62509;46.248;6.018;2024-03-29T22:06:45;21.70;49.80
74155;DHT22;62509;46.248;6.018;2024-03-29T22:11:49;21.70;49.80
74155;DHT22;62509;46.248;6.018;2024-03-29T22:16:53;21.70;49.80
74155;DHT22;62509;46.248;6.018;2024-03-29T22:21:55;21.70;49.80
74155;DHT22;62509;46.248;6.018;2024-03-29T22:26:58;21.70;49.70
74155;DHT22;62509;46.248;6.018;2024-03-29T22:32:01;21.70;49.70
74155;DHT22;62509;46.248;6.018;2024-03-29T22:37:05;21.70;49.70
74155;DHT22;62509;46.248;6.018;2024-03-29T22:42:09;21.70;49.70
74155;DHT22;62509;46.248;6.018;2024-03-29T22:47:13;21.70;49.70
74155;DHT22;62509;46.248;6.018;2024-03-29T22:52:15;21.70;49.70
74155;DHT22;62509;46.248;6.018;2024-03-29T22:57:17;21.60;49.60
74155;DHT22;62509;46.248;6.018;2024-03-29T23:02:20;21.60;49.60
74155;DHT22;62509;46.248;6.018;2024-03-29T23:07:23;21.60;49.60
74155;DHT22;62509;46.248;6.018;2024-03-29T23:12:25;21.60;49.50
74155;DHT22;62509;46.248;6.018;2024-03-29T23:17:28;21.60;49.50
74155;DHT22;62509;46.248;6.018;2024-03-29T23:22:31;21.60;49.50
74155;DHT22;62509;46.248;6.018;2024-03-29T23:27:33;21.60;49.50
74155;DHT22;62509;46.248;6.018;2024-03-29T23:32:38;21.60;49.50
74155;DHT22;62509;46.248;6.018;2024-03-29T23:37:40;21.60;49.50
74155;DHT22;62509;46.248;6.018;2024-03-29T23:42:42;21.60;49.40
74155;DHT22;62509;46.248;6.018;2024-03-29T23:47:45;21.60;49.40
74155;DHT22;62509;46.248;6.018;2024-03-29T23:52:48;21.60;49.40
74155;DHT22;62509;46.248;6.018;2024-03-29T23:57:50;21.60;49.40
